createdAt,value
2019-04-24T00:03:44.806Z,19.48
2019-04-24T00:07:05.815Z,21.37
2019-04-24T00:10:15.910Z,19.67
2019-04-24T00:13:12.640Z,20.77
2019-04-24T00:16:20.235Z,19.70
2019-04-24T00:19:23.377Z,20.32
2019-04-24T00:28:04.556Z,20.62
2019-04-24T00:31:03.991Z,20.82
2019-04-24T00:39:46.133Z,21.55
2019-04-24T00:43:13.972Z,21.23
2019-04-24T00:46:09.648Z,22.10
2019-04-24T00:48:52.685Z,20.75
2019-04-24T00:51:44.581Z,21.48
2019-04-24T00:54:31.722Z,22.32
2019-04-24T00:57:41.020Z,22.02
2019-04-24T01:00:46.490Z,22.07
2019-04-24T01:03:49.609Z,22.22
2019-04-24T01:07:25.415Z,22.62
2019-04-24T01:13:06.760Z,21.12
2019-04-24T01:16:15.803Z,22.67
2019-04-24T01:22:09.540Z,21.65
2019-04-24T01:25:17.650Z,21.60
2019-04-24T01:31:10.570Z,21.52
2019-04-24T01:40:33.919Z,22.73
2019-04-24T01:43:34.487Z,23.27
2019-04-24T01:46:29.329Z,24.07
2019-04-24T01:52:36.630Z,24.65
2019-04-24T01:55:18.402Z,24.65
2019-04-24T02:01:21.327Z,25.88
2019-04-24T02:04:15.260Z,24.20
2019-04-24T02:07:33.998Z,26.13
2019-04-24T02:13:28.914Z,25.68
2019-04-24T02:16:21.062Z,25.40
2019-04-24T02:19:18.701Z,25.72
2019-04-24T02:22:26.981Z,25.50
2019-04-24T02:25:27.755Z,26.10
2019-04-24T02:31:25.501Z,25.80
2019-04-24T02:43:31.337Z,27.30
2019-04-24T02:49:36.360Z,27.42
2019-04-24T02:55:13.287Z,27.70
2019-04-24T02:58:13.614Z,27.58
2019-04-24T03:01:17.511Z,26.02
2019-04-24T03:04:28.690Z,26.10
2019-04-24T03:07:55.750Z,27.65
2019-04-24T03:10:28.257Z,27.02
2019-04-24T03:17:08.463Z,27.48
2019-04-24T03:19:49.777Z,27.13
2019-04-24T03:32:20.437Z,27.48
2019-04-24T03:34:59.610Z,27.87
2019-04-24T03:41:06.211Z,26.57
2019-04-24T03:46:30.162Z,27.10
2019-04-24T03:52:26.275Z,28.12
2019-04-24T03:55:57.210Z,27.17
2019-04-24T04:14:28.010Z,27.40
2019-04-24T04:26:36.100Z,27.37
2019-04-24T04:32:54.753Z,27.55
2019-04-24T04:35:13.689Z,29.15
2019-04-24T04:41:45.946Z,29.57
2019-04-24T04:48:09.013Z,28.30
2019-04-24T04:51:12.257Z,29.63
2019-04-24T04:59:58.346Z,30.02
2019-04-24T05:03:10.491Z,29.10
2019-04-24T05:06:34.021Z,30.02
2019-04-24T05:12:29.171Z,28.62
2019-04-24T05:21:05.838Z,27.30
2019-04-24T05:24:09.951Z,27.25
2019-04-24T05:30:01.060Z,27.30
2019-04-24T05:36:05.796Z,26.57
2019-04-24T05:42:10.945Z,26.07
2019-04-24T05:45:11.016Z,26.75
2019-04-24T05:47:57.479Z,26.55
2019-04-24T05:54:36.600Z,25.67
2019-04-24T06:01:00.673Z,24.60
2019-04-24T06:04:27.500Z,25.87
2019-04-24T06:14:03.626Z,25.50
2019-04-24T06:20:39.635Z,25.47
2019-04-24T06:29:43.615Z,24.98
2019-04-24T06:38:35.964Z,24.77
2019-04-24T06:42:02.205Z,24.30
2019-04-24T06:53:28.030Z,24.10
2019-04-24T07:02:40.174Z,22.53
2019-04-24T07:05:59.904Z,22.07
2019-04-24T07:09:17.886Z,20.63
2019-04-24T07:12:08.023Z,21.33
2019-04-24T07:15:09.140Z,21.60
2019-04-24T07:18:15.307Z,21.17
2019-04-24T07:24:08.942Z,21.53
2019-04-24T07:27:08.544Z,22.23
2019-04-24T07:30:04.279Z,21.37
2019-04-24T07:36:45.678Z,20.73
2019-04-24T07:42:43.150Z,20.73
2019-04-24T07:45:53.267Z,19.73
2019-04-24T07:48:53.433Z,21.00
2019-04-24T07:54:46.218Z,19.10
2019-04-24T07:57:44.727Z,18.00
2019-04-24T08:03:51.635Z,20.83
2019-04-24T08:06:47.720Z,21.20
2019-04-24T08:10:17.336Z,20.33
2019-04-24T08:13:10.846Z,20.07
2019-04-24T08:16:04.510Z,19.77
2019-04-24T08:19:44.950Z,20.47
2019-04-24T08:25:18.991Z,19.67
2019-04-24T08:37:37.407Z,20.07
2019-04-24T08:40:48.121Z,19.33
2019-04-24T08:43:48.560Z,20.37
2019-04-24T08:46:59.598Z,20.23
2019-04-24T08:52:55.638Z,20.03
2019-04-24T08:55:58.010Z,20.83
2019-04-24T08:58:48.195Z,20.57
2019-04-24T09:02:08.402Z,21.53
2019-04-24T09:11:22.233Z,22.07
2019-04-24T09:14:20.361Z,20.20
2019-04-24T09:17:05.585Z,22.53
2019-04-24T09:20:14.888Z,23.03
2019-04-24T09:23:46.044Z,20.80
2019-04-24T09:32:41.667Z,21.40
2019-04-24T09:35:15.798Z,20.90
2019-04-24T09:38:37.626Z,22.43
2019-04-24T09:41:54.281Z,22.37
2019-04-24T09:47:25.615Z,22.00
2019-04-24T09:53:37.683Z,24.27
2019-04-24T09:56:28.317Z,22.20
2019-04-24T09:59:24.695Z,23.83
2019-04-24T10:05:49.907Z,24.80
2019-04-24T10:08:43.411Z,23.97
2019-04-24T10:14:40.220Z,23.47
2019-04-24T10:17:37.494Z,22.13
2019-04-24T10:20:38.302Z,22.97
2019-04-24T10:27:03.811Z,21.37
2019-04-24T10:30:04.275Z,22.80
2019-04-24T10:33:37.796Z,21.30
2019-04-24T10:36:40.121Z,22.53
2019-04-24T10:42:48.897Z,20.73
2019-04-24T10:45:45.950Z,20.63
2019-04-24T10:49:04.541Z,19.67
2019-04-24T10:52:03.463Z,20.60
2019-04-24T10:55:02.062Z,21.20
2019-04-24T10:57:59.975Z,20.77
2019-04-24T11:01:23.630Z,20.23
2019-04-24T11:04:37.717Z,21.00
2019-04-24T11:07:53.113Z,20.80
2019-04-24T11:10:47.846Z,21.20
2019-04-24T11:14:19.027Z,21.20
2019-04-24T11:20:45.521Z,21.13
2019-04-24T11:23:34.399Z,21.47
2019-04-24T11:33:08.621Z,22.07
2019-04-24T11:36:23.061Z,22.10
2019-04-24T11:39:37.321Z,20.00
2019-04-24T11:42:10.402Z,20.37
2019-04-24T11:45:36.493Z,20.57
2019-04-24T11:48:56.855Z,20.77
2019-04-24T11:52:12.440Z,20.23
2019-04-24T12:01:06.940Z,22.00
2019-04-24T12:04:37.276Z,19.00
2019-04-24T12:07:24.796Z,20.63
2019-04-24T12:10:20.865Z,20.40
2019-04-24T12:13:31.823Z,19.47
2019-04-24T12:35:22.017Z,22.03
2019-04-24T12:38:22.391Z,21.20
2019-04-24T12:44:28.325Z,22.07
2019-04-24T12:47:33.641Z,20.27
2019-04-24T12:50:41.713Z,20.97
2019-04-24T12:53:38.354Z,18.83
2019-04-24T12:57:03.059Z,19.43
2019-04-24T12:59:51.438Z,20.00
2019-04-24T13:03:02.779Z,19.67
2019-04-24T13:09:13.923Z,18.67
2019-04-24T13:12:35.733Z,17.33
2019-04-24T13:18:13.250Z,18.93
2019-04-24T13:20:43.169Z,17.33
2019-04-24T13:23:49.276Z,19.53
2019-04-24T13:33:20.886Z,19.10
2019-04-24T13:36:30.162Z,17.90
2019-04-24T13:39:03.702Z,18.80
2019-04-24T13:42:11.233Z,19.17
2019-04-24T13:45:09.283Z,19.07
2019-04-24T13:48:23.745Z,19.00
2019-04-24T13:50:58.316Z,17.13
2019-04-24T13:56:54.442Z,17.10
2019-04-24T14:05:58.639Z,16.57
2019-04-24T14:12:40.490Z,17.37
2019-04-24T14:17:44.416Z,16.30
2019-04-24T14:20:56.238Z,15.00
2019-04-24T14:27:01.752Z,16.13
2019-04-24T14:29:48.460Z,15.00
2019-04-24T14:32:55.506Z,13.97
2019-04-24T14:38:48.207Z,14.73
2019-04-24T14:41:40.669Z,12.70
2019-04-24T14:44:57.361Z,14.07
2019-04-24T14:47:37.941Z,13.03
2019-04-24T14:50:33.114Z,12.73
2019-04-24T14:53:44.190Z,12.27
2019-04-24T14:59:34.224Z,13.40
2019-04-24T15:05:28.534Z,13.17
2019-04-24T15:17:20.420Z,14.63
2019-04-24T15:20:35.734Z,14.77
2019-04-24T15:23:13.261Z,13.83
2019-04-24T15:26:22.799Z,14.10
2019-04-24T15:29:13.508Z,13.73
2019-04-24T15:32:10.767Z,14.23
2019-04-24T15:38:04.991Z,13.57
2019-04-24T15:41:09.512Z,13.50
2019-04-24T15:43:53.516Z,13.07
2019-04-24T15:47:12.652Z,13.20
2019-04-24T15:52:17.861Z,13.67
2019-04-24T15:55:23.438Z,13.43
2019-04-24T15:58:27.725Z,12.57
2019-04-24T16:02:07.545Z,12.90
2019-04-24T16:07:17.276Z,12.30
2019-04-24T16:10:22.275Z,12.80
2019-04-24T16:13:24.599Z,11.90
2019-04-24T16:19:41.237Z,11.30
2019-04-24T16:22:37.969Z,12.00
2019-04-24T16:25:40.097Z,12.40
2019-04-24T16:28:32.601Z,12.80
2019-04-24T16:31:38.698Z,12.70
2019-04-24T16:34:29.778Z,13.27
2019-04-24T16:37:22.696Z,12.17
2019-04-24T16:43:42.249Z,13.67
2019-04-24T16:50:00.471Z,12.47
2019-04-24T16:52:52.803Z,13.20
2019-04-24T16:55:33.170Z,12.80
2019-04-24T17:04:40.224Z,12.33
2019-04-24T17:07:26.733Z,14.27
2019-04-24T17:10:19.234Z,13.43
2019-04-24T17:16:34.398Z,14.20
2019-04-24T17:19:46.273Z,12.47
2019-04-24T17:22:28.463Z,12.90
2019-04-24T17:25:25.651Z,13.10
2019-04-24T17:28:29.681Z,13.60
2019-04-24T17:31:24.779Z,12.77
2019-04-24T17:34:25.158Z,12.83
2019-04-24T17:36:47.357Z,13.50
2019-04-24T17:40:01.471Z,12.33
2019-04-24T17:43:22.439Z,13.43
2019-04-24T17:46:34.331Z,14.00
2019-04-24T17:49:24.650Z,13.00
2019-04-24T17:52:40.186Z,13.10
2019-04-24T17:55:11.065Z,12.67
2019-04-24T17:57:45.692Z,13.07
2019-04-24T18:00:53.483Z,13.30
2019-04-24T18:03:50.270Z,13.17
2019-04-24T18:06:45.831Z,12.60
2019-04-24T18:09:41.990Z,12.53
2019-04-24T18:12:39.093Z,13.20
2019-04-24T18:15:37.215Z,12.10
2019-04-24T18:18:32.927Z,13.63
2019-04-24T18:21:32.205Z,13.07
2019-04-24T18:24:51.991Z,12.57
2019-04-24T18:27:48.363Z,12.90
2019-04-24T18:30:44.523Z,13.33
2019-04-24T18:33:42.084Z,12.27
2019-04-24T18:36:38.327Z,13.40
2019-04-24T18:39:34.697Z,12.73
2019-04-24T18:42:31.734Z,13.90
2019-04-24T18:45:27.139Z,13.40
2019-04-24T18:48:22.682Z,13.73
2019-04-24T18:51:18.325Z,13.13
2019-04-24T18:54:14.642Z,12.57
2019-04-24T18:57:10.074Z,14.73
2019-04-24T19:00:07.959Z,13.30
2019-04-24T19:03:04.446Z,13.43
2019-04-24T19:05:59.581Z,14.77
2019-04-24T19:08:55.062Z,15.20
2019-04-24T19:11:51.419Z,14.20
2019-04-24T19:14:47.472Z,14.70
2019-04-24T19:17:54.368Z,14.67
2019-04-24T19:20:41.531Z,14.47
2019-04-24T19:23:38.065Z,14.40
2019-04-24T19:26:34.091Z,15.17
2019-04-24T19:29:30.453Z,14.67
2019-04-24T19:32:26.878Z,15.13
2019-04-24T19:35:22.557Z,14.97
2019-04-24T19:38:19.261Z,15.10
2019-04-24T19:41:15.140Z,14.77
2019-04-24T19:44:13.566Z,15.33
2019-04-24T19:47:08.531Z,15.40
2019-04-24T19:50:07.644Z,14.87
2019-04-24T19:53:13.853Z,16.07
2019-04-24T19:55:59.150Z,15.67
2019-04-24T19:58:57.478Z,15.00
2019-04-24T20:01:53.114Z,15.30
2019-04-24T20:04:49.326Z,16.03
2019-04-24T20:07:45.274Z,15.73
2019-04-24T20:10:51.238Z,14.97
2019-04-24T20:13:46.522Z,15.67
2019-04-24T20:16:44.684Z,15.97
2019-04-24T20:19:43.606Z,14.33
2019-04-24T20:22:39.046Z,15.30
2019-04-24T20:25:35.638Z,15.63
2019-04-24T20:28:31.585Z,15.07
2019-04-24T20:31:26.768Z,15.03
2019-04-24T20:34:26.013Z,14.90
2019-04-24T20:37:21.399Z,15.33
2019-04-24T20:40:17.307Z,13.40
2019-04-24T20:43:15.219Z,15.30
2019-04-24T20:46:11.013Z,15.57
2019-04-24T20:49:07.429Z,15.83
2019-04-24T20:52:06.241Z,14.53
2019-04-24T20:55:02.591Z,15.03
2019-04-24T20:57:58.950Z,14.47
2019-04-24T21:00:55.459Z,13.40
2019-04-24T21:03:53.555Z,13.87
2019-04-24T21:06:57.564Z,14.00
2019-04-24T21:09:57.915Z,13.10
2019-04-24T21:12:54.445Z,12.80
2019-04-24T21:15:52.387Z,13.30
2019-04-24T21:18:49.171Z,12.20
2019-04-24T21:21:44.903Z,12.77
2019-04-24T21:24:41.739Z,12.93
2019-04-24T21:27:38.022Z,12.53
2019-04-24T21:30:36.329Z,12.60
2019-04-24T21:33:32.677Z,12.03
2019-04-24T21:36:28.261Z,12.63
2019-04-24T21:39:25.576Z,11.53
2019-04-24T21:42:23.490Z,12.87
2019-04-24T21:45:19.765Z,12.00
2019-04-24T21:48:15.095Z,12.10
2019-04-24T21:51:11.822Z,13.50
2019-04-24T21:54:07.145Z,11.77
2019-04-24T21:57:02.755Z,12.80
2019-04-24T21:59:58.703Z,11.67
2019-04-24T22:02:55.180Z,11.77
2019-04-24T22:05:53.283Z,11.33
2019-04-24T22:08:48.416Z,11.27
2019-04-24T22:11:45.333Z,11.53
2019-04-24T22:14:42.293Z,11.27
2019-04-24T22:17:38.056Z,11.20
2019-04-24T22:20:44.537Z,10.60
2019-04-24T22:23:48.803Z,10.53
2019-04-24T22:26:44.520Z,11.77
2019-04-24T22:29:39.868Z,10.77
2019-04-24T22:32:37.723Z,10.60
2019-04-24T22:35:37.442Z,11.00
2019-04-24T22:38:36.347Z,10.70
2019-04-24T22:41:31.949Z,11.80
2019-04-24T22:44:29.666Z,11.17
2019-04-24T22:47:26.054Z,10.67
2019-04-24T22:50:23.292Z,10.77
2019-04-24T22:53:19.011Z,10.07
2019-04-24T22:56:15.702Z,11.13
2019-04-24T22:59:13.175Z,11.17
2019-04-24T23:02:09.523Z,10.57
2019-04-24T23:05:06.185Z,9.90
2019-04-24T23:08:05.971Z,10.33
2019-04-24T23:11:02.481Z,9.70
2019-04-24T23:13:58.563Z,9.90
2019-04-24T23:16:54.970Z,9.23
2019-04-24T23:19:51.420Z,10.07
2019-04-24T23:22:58.255Z,10.43
2019-04-24T23:26:15.365Z,9.73
2019-04-24T23:29:14.929Z,9.57
2019-04-24T23:32:22.993Z,10.67
2019-04-24T23:35:19.253Z,9.67
2019-04-24T23:38:15.289Z,10.43
2019-04-24T23:41:12.838Z,9.83
2019-04-24T23:44:09.744Z,10.40
2019-04-24T23:47:05.429Z,8.27
2019-04-24T23:50:02.177Z,4.73
2019-04-24T23:52:59.549Z,4.57
2019-04-24T23:55:56.053Z,3.50
2019-04-24T23:58:52.461Z,3.20
